sensor_id;sensor_type;location;lat;lon;timestamp;pressure;altitude;pressure_sealevel;temperature;humidity
60240;BME280;46102;39.012;-7.064;2023-05-01T00:00:31;98451.09;;;19.63;58.63
60240;BME280;46102;39.012;-7.064;2023-05-01T00:02:32;98451.84;;;19.60;58.58
60240;BME280;46102;39.012;-7.064;2023-05-01T00:04:33;98452.94;;;19.52;58.81
60240;BME280;46102;39.012;-7.064;2023-05-01T00:06:34;98449.34;;;19.48;58.79
60240;BME280;46102;39.012;-7.064;2023-05-01T00:08:34;98451.28;;;19.44;58.88
60240;BME280;46102;39.012;-7.064;2023-05-01T00:10:36;98452.72;;;19.34;59.14
60240;BME280;46102;39.012;-7.064;2023-05-01T00:12:36;98445.50;;;19.29;59.18
60240;BME280;46102;39.012;-7.064;2023-05-01T00:14:37;98436.03;;;19.34;59.16
60240;BME280;46102;39.012;-7.064;2023-05-01T00:16:38;98445.50;;;19.29;59.24
60240;BME280;46102;39.012;-7.064;2023-05-01T00:18:39;98442.28;;;19.24;59.11
60240;BME280;46102;39.012;-7.064;2023-05-01T00:20:40;98434.00;;;19.27;59.00
60240;BME280;46102;39.012;-7.064;2023-05-01T00:22:41;98435.88;;;19.20;58.98
60240;BME280;46102;39.012;-7.064;2023-05-01T00:24:41;98433.50;;;19.22;59.02
60240;BME280;46102;39.012;-7.064;2023-05-01T00:26:42;98445.34;;;19.15;59.13
60240;BME280;46102;39.012;-7.064;2023-05-01T00:28:43;98433.47;;;19.18;59.09
60240;BME280;46102;39.012;-7.064;2023-05-01T00:30:44;98441.34;;;19.12;59.25
60240;BME280;46102;39.012;-7.064;2023-05-01T00:32:45;98436.22;;;19.14;59.35
60240;BME280;46102;39.012;-7.064;2023-05-01T00:34:46;98437.38;;;19.13;59.14
60240;BME280;46102;39.012;-7.064;2023-05-01T00:36:48;98433.66;;;19.02;59.24
60240;BME280;46102;39.012;-7.064;2023-05-01T00:38:48;98436.34;;;18.95;59.44
60240;BME280;46102;39.012;-7.064;2023-05-01T00:40:49;98434.25;;;18.88;59.63
60240;BME280;46102;39.012;-7.064;2023-05-01T00:42:50;98436.22;;;18.88;59.60
60240;BME280;46102;39.012;-7.064;2023-05-01T00:44:51;98431.81;;;18.83;59.73
60240;BME280;46102;39.012;-7.064;2023-05-01T00:46:52;98428.97;;;18.80;59.75
60240;BME280;46102;39.012;-7.064;2023-05-01T00:48:53;98434.91;;;18.78;59.94
60240;BME280;46102;39.012;-7.064;2023-05-01T00:50:55;98435.19;;;18.73;59.67
60240;BME280;46102;39.012;-7.064;2023-05-01T00:52:56;98433.94;;;18.67;59.79
60240;BME280;46102;39.012;-7.064;2023-05-01T00:54:57;98433.09;;;18.66;59.85
60240;BME280;46102;39.012;-7.064;2023-05-01T00:56:58;98425.19;;;18.68;59.81
60240;BME280;46102;39.012;-7.064;2023-05-01T00:59:00;98419.97;;;18.63;59.87
60240;BME280;46102;39.012;-7.064;2023-05-01T01:01:00;98419.97;;;18.63;59.88
60240;BME280;46102;39.012;-7.064;2023-05-01T01:03:01;98422.75;;;18.63;59.81
60240;BME280;46102;39.012;-7.064;2023-05-01T01:05:04;98417.13;;;18.60;59.75
60240;BME280;46102;39.012;-7.064;2023-05-01T01:07:08;98414.34;;;18.60;59.61
60240;BME280;46102;39.012;-7.064;2023-05-01T01:11:39;98403.91;;;18.49;60.00
60240;BME280;46102;39.012;-7.064;2023-05-01T01:13:54;98405.06;;;18.48;60.01
60240;BME280;46102;39.012;-7.064;2023-05-01T01:16:06;98397.47;;;18.45;60.31
60240;BME280;46102;39.012;-7.064;2023-05-01T01:18:19;98402.06;;;18.34;60.27
60240;BME280;46102;39.012;-7.064;2023-05-01T01:20:31;98401.69;;;18.36;60.35
60240;BME280;46102;39.012;-7.064;2023-05-01T01:22:39;98399.28;;;18.34;60.29
60240;BME280;46102;39.012;-7.064;2023-05-01T01:30:01;98401.88;;;18.23;60.38
60240;BME280;46102;39.012;-7.064;2023-05-01T01:34:50;98404.31;;;18.25;60.49
60240;BME280;46102;39.012;-7.064;2023-05-01T01:39:13;98405.66;;;18.12;60.95
60240;BME280;46102;39.012;-7.064;2023-05-01T01:41:30;98402.81;;;18.08;60.79
60240;BME280;46102;39.012;-7.064;2023-05-01T01:43:51;98403.94;;;18.03;60.71
60240;BME280;46102;39.012;-7.064;2023-05-01T01:46:01;98398.34;;;18.00;60.79
60240;BME280;46102;39.012;-7.064;2023-05-01T01:48:08;98403.69;;;17.89;61.14
60240;BME280;46102;39.012;-7.064;2023-05-01T01:50:11;98401.34;;;17.91;61.14
60240;BME280;46102;39.012;-7.064;2023-05-01T01:52:15;98393.78;;;17.88;61.09
60240;BME280;46102;39.012;-7.064;2023-05-01T01:54:21;98392.94;;;17.87;60.96
60240;BME280;46102;39.012;-7.064;2023-05-01T01:56:26;98386.97;;;17.85;61.01
60240;BME280;46102;39.012;-7.064;2023-05-01T01:58:28;98384.88;;;17.79;61.24
60240;BME280;46102;39.012;-7.064;2023-05-01T02:00:32;98382.81;;;17.76;61.24
60240;BME280;46102;39.012;-7.064;2023-05-01T02:02:34;98381.94;;;17.72;61.28
60240;BME280;46102;39.012;-7.064;2023-05-01T02:04:37;98381.91;;;17.68;61.06
60240;BME280;46102;39.012;-7.064;2023-05-01T02:06:40;98383.13;;;17.71;60.94
60240;BME280;46102;39.012;-7.064;2023-05-01T02:08:43;98379.16;;;17.72;61.04
60240;BME280;46102;39.012;-7.064;2023-05-01T02:10:47;98379.13;;;17.68;60.97
60240;BME280;46102;39.012;-7.064;2023-05-01T02:12:50;98384.16;;;17.62;61.29
60240;BME280;46102;39.012;-7.064;2023-05-01T02:14:55;98382.88;;;17.56;61.30
60240;BME280;46102;39.012;-7.064;2023-05-01T02:16:57;98384.03;;;17.55;61.45
60240;BME280;46102;39.012;-7.064;2023-05-01T02:18:59;98377.59;;;17.51;61.43
60240;BME280;46102;39.012;-7.064;2023-05-01T02:21:02;98384.38;;;17.54;61.19
60240;BME280;46102;39.012;-7.064;2023-05-01T02:23:10;98384.34;;;17.50;61.36
60240;BME280;46102;39.012;-7.064;2023-05-01T02:25:13;98385.94;;;17.51;61.41
60240;BME280;46102;39.012;-7.064;2023-05-01T02:27:19;98387.03;;;17.46;61.50
60240;BME280;46102;39.012;-7.064;2023-05-01T02:29:23;98381.34;;;17.39;61.79
60240;BME280;46102;39.012;-7.064;2023-05-01T02:31:24;98387.34;;;17.41;61.79
60240;BME280;46102;39.012;-7.064;2023-05-01T02:33:26;98384.56;;;17.41;61.74
60240;BME280;46102;39.012;-7.064;2023-05-01T02:35:27;98382.38;;;17.31;61.90
60240;BME280;46102;39.012;-7.064;2023-05-01T02:37:28;98383.91;;;17.28;61.99
60240;BME280;46102;39.012;-7.064;2023-05-01T02:39:30;98382.22;;;17.24;61.97
60240;BME280;46102;39.012;-7.064;2023-05-01T02:41:32;98391.78;;;17.26;61.72
60240;BME280;46102;39.012;-7.064;2023-05-01T02:43:34;98381.00;;;17.21;61.58
60240;BME280;46102;39.012;-7.064;2023-05-01T02:45:37;98391.06;;;17.30;61.48
60240;BME280;46102;39.012;-7.064;2023-05-01T02:47:41;98385.09;;;17.27;61.38
60240;BME280;46102;39.012;-7.064;2023-05-01T02:49:44;98382.31;;;17.27;61.10
60240;BME280;46102;39.012;-7.064;2023-05-01T02:51:47;98383.91;;;17.28;61.19
60240;BME280;46102;39.012;-7.064;2023-05-01T02:53:49;98383.56;;;17.30;61.06
60240;BME280;46102;39.012;-7.064;2023-05-01T02:55:55;98383.25;;;17.35;60.43
60240;BME280;46102;39.012;-7.064;2023-05-01T02:57:59;98381.28;;;17.36;60.66
60240;BME280;46102;39.012;-7.064;2023-05-01T03:00:00;98391.13;;;17.33;61.05
60240;BME280;46102;39.012;-7.064;2023-05-01T03:02:01;98385.97;;;17.32;60.92
60240;BME280;46102;39.012;-7.064;2023-05-01T03:04:01;98394.13;;;17.24;61.06
60240;BME280;46102;39.012;-7.064;2023-05-01T03:06:03;98388.97;;;17.23;61.28
60240;BME280;46102;39.012;-7.064;2023-05-01T03:08:04;98401.94;;;17.19;61.63
60240;BME280;46102;39.012;-7.064;2023-05-01T03:10:06;98399.72;;;17.09;62.00
60240;BME280;46102;39.012;-7.064;2023-05-01T03:12:07;98396.13;;;17.04;62.27
60240;BME280;46102;39.012;-7.064;2023-05-01T03:14:08;98396.47;;;17.03;62.11
60240;BME280;46102;39.012;-7.064;2023-05-01T03:16:10;98392.72;;;16.95;62.38
60240;BME280;46102;39.012;-7.064;2023-05-01T03:18:11;98392.81;;;16.99;62.37
60240;BME280;46102;39.012;-7.064;2023-05-01T03:20:12;98394.78;;;16.98;62.37
60240;BME280;46102;39.012;-7.064;2023-05-01T03:22:14;98395.50;;;16.95;62.46
60240;BME280;46102;39.012;-7.064;2023-05-01T03:24:15;98391.56;;;16.96;62.31
60240;BME280;46102;39.012;-7.064;2023-05-01T03:26:16;98399.78;;;16.93;62.15
60240;BME280;46102;39.012;-7.064;2023-05-01T03:28:17;98396.75;;;16.98;62.01
60240;BME280;46102;39.012;-7.064;2023-05-01T03:30:18;98399.28;;;17.06;61.59
60240;BME280;46102;39.012;-7.064;2023-05-01T03:32:19;98403.16;;;17.02;61.78
60240;BME280;46102;39.012;-7.064;2023-05-01T03:34:21;98391.22;;;16.98;61.89
60240;BME280;46102;39.012;-7.064;2023-05-01T03:36:22;98395.13;;;16.97;61.87
60240;BME280;46102;39.012;-7.064;2023-05-01T03:38:25;98395.50;;;16.95;61.67
60240;BME280;46102;39.012;-7.064;2023-05-01T03:40:46;98387.13;;;16.92;61.87
60240;BME280;46102;39.012;-7.064;2023-05-01T03:43:16;98395.78;;;16.90;61.83
60240;BME280;46102;39.012;-7.064;2023-05-01T03:45:17;98390.59;;;16.89;61.80
60240;BME280;46102;39.012;-7.064;2023-05-01T03:47:18;98388.66;;;16.89;61.40
60240;BME280;46102;39.012;-7.064;2023-05-01T03:49:19;98390.25;;;16.90;61.59
60240;BME280;46102;39.012;-7.064;2023-05-01T03:51:22;98389.53;;;16.93;61.36
60240;BME280;46102;39.012;-7.064;2023-05-01T03:53:24;98396.22;;;16.92;61.36
60240;BME280;46102;39.012;-7.064;2023-05-01T03:55:25;98391.03;;;16.91;61.09
60240;BME280;46102;39.012;-7.064;2023-05-01T03:57:26;98388.66;;;16.89;61.18
60240;BME280;46102;39.012;-7.064;2023-05-01T03:59:27;98397.41;;;16.91;61.32
60240;BME280;46102;39.012;-7.064;2023-05-01T04:01:28;98394.63;;;16.91;60.84
60240;BME280;46102;39.012;-7.064;2023-05-01T04:03:29;98390.25;;;16.90;60.75
60240;BME280;46102;39.012;-7.064;2023-05-01T04:05:30;98395.78;;;16.90;60.98
60240;BME280;46102;39.012;-7.064;2023-05-01T04:07:36;98399.34;;;16.91;60.78
60240;BME280;46102;39.012;-7.064;2023-05-01T04:09:37;98395.88;;;16.94;60.34
60240;BME280;46102;39.012;-7.064;2023-05-01T04:11:38;98393.47;;;16.92;60.48
60240;BME280;46102;39.012;-7.064;2023-05-01T04:13:38;98387.19;;;16.95;60.51
60240;BME280;46102;39.012;-7.064;2023-05-01T04:15:43;98381.00;;;17.02;60.39
60240;BME280;46102;39.012;-7.064;2023-05-01T04:17:44;98383.31;;;17.00;60.08
60240;BME280;46102;39.012;-7.064;2023-05-01T04:19:46;98382.91;;;16.98;59.59
60240;BME280;46102;39.012;-7.064;2023-05-01T04:21:47;98387.28;;;16.99;59.45
60240;BME280;46102;39.012;-7.064;2023-05-01T04:23:48;98386.63;;;17.05;58.69
60240;BME280;46102;39.012;-7.064;2023-05-01T04:25:49;98392.59;;;17.08;58.88
60240;BME280;46102;39.012;-7.064;2023-05-01T04:27:52;98397.34;;;17.07;58.58
60240;BME280;46102;39.012;-7.064;2023-05-01T04:29:53;98397.34;;;17.07;58.65
60240;BME280;46102;39.012;-7.064;2023-05-01T04:31:55;98406.81;;;17.06;58.84
60240;BME280;46102;39.012;-7.064;2023-05-01T04:33:56;98404.03;;;17.06;58.97
60240;BME280;46102;39.012;-7.064;2023-05-01T04:35:58;98410.31;;;17.03;59.03
60240;BME280;46102;39.012;-7.064;2023-05-01T04:38:00;98406.81;;;17.06;59.17
60240;BME280;46102;39.012;-7.064;2023-05-01T04:40:01;98409.59;;;17.06;59.32
60240;BME280;46102;39.012;-7.064;2023-05-01T04:42:03;98409.16;;;17.04;60.15
60240;BME280;46102;39.012;-7.064;2023-05-01T04:44:04;98415.06;;;17.02;60.82
60240;BME280;46102;39.012;-7.064;2023-05-01T04:46:05;98412.34;;;16.87;61.15
60240;BME280;46102;39.012;-7.064;2023-05-01T04:48:06;98403.84;;;16.79;60.92
60240;BME280;46102;39.012;-7.064;2023-05-01T04:50:07;98415.94;;;16.71;60.55
60240;BME280;46102;39.012;-7.064;2023-05-01T04:52:09;98408.78;;;16.70;60.29
60240;BME280;46102;39.012;-7.064;2023-05-01T04:54:23;98409.31;;;16.76;60.01
60240;BME280;46102;39.012;-7.064;2023-05-01T04:56:25;98410.41;;;16.71;60.20
60240;BME280;46102;39.012;-7.064;2023-05-01T04:58:30;98409.06;;;16.65;60.47
60240;BME280;46102;39.012;-7.064;2023-05-01T05:00:36;98418.81;;;16.59;60.76
60240;BME280;46102;39.012;-7.064;2023-05-01T05:02:40;98424.28;;;16.55;60.50
60240;BME280;46102;39.012;-7.064;2023-05-01T05:04:41;98412.81;;;16.57;59.97
60240;BME280;46102;39.012;-7.064;2023-05-01T05:06:42;98411.69;;;16.58;59.64
60240;BME280;46102;39.012;-7.064;2023-05-01T05:08:48;98409.78;;;16.62;58.73
60240;BME280;46102;39.012;-7.064;2023-05-01T05:10:56;98417.03;;;16.67;58.45
60240;BME280;46102;39.012;-7.064;2023-05-01T05:13:06;98411.19;;;16.72;58.48
60240;BME280;46102;39.012;-7.064;2023-05-01T05:15:07;98417.03;;;16.67;58.82
60240;BME280;46102;39.012;-7.064;2023-05-01T05:17:09;98406.28;;;16.65;58.67
60240;BME280;46102;39.012;-7.064;2023-05-01T05:19:10;98410.25;;;16.64;58.54
60240;BME280;46102;39.012;-7.064;2023-05-01T05:21:15;98412.56;;;16.62;58.38
60240;BME280;46102;39.012;-7.064;2023-05-01T05:23:23;98419.59;;;16.59;58.09
60240;BME280;46102;39.012;-7.064;2023-05-01T05:25:24;98421.13;;;16.57;57.12
60240;BME280;46102;39.012;-7.064;2023-05-01T05:27:26;98420.59;;;16.67;56.05
60240;BME280;46102;39.012;-7.064;2023-05-01T05:29:29;98421.09;;;16.73;55.44
60240;BME280;46102;39.012;-7.064;2023-05-01T05:31:29;98417.81;;;16.83;54.38
60240;BME280;46102;39.012;-7.064;2023-05-01T05:33:30;98421.59;;;16.94;53.61
60240;BME280;46102;39.012;-7.064;2023-05-01T05:35:32;98425.78;;;17.04;53.13
60240;BME280;46102;39.012;-7.064;2023-05-01T05:37:33;98426.75;;;17.12;52.62
60240;BME280;46102;39.012;-7.064;2023-05-01T05:39:34;98438.31;;;17.17;52.48
60240;BME280;46102;39.012;-7.064;2023-05-01T05:41:36;98432.44;;;17.19;52.85
60240;BME280;46102;39.012;-7.064;2023-05-01T05:43:37;98427.31;;;17.21;52.95
60240;BME280;46102;39.012;-7.064;2023-05-01T05:45:39;98424.59;;;17.24;52.76
60240;BME280;46102;39.012;-7.064;2023-05-01T05:47:40;98431.78;;;17.25;52.36
60240;BME280;46102;39.012;-7.064;2023-05-01T05:49:41;98436.09;;;17.23;52.01
60240;BME280;46102;39.012;-7.064;2023-05-01T05:51:41;98442.91;;;17.29;51.78
60240;BME280;46102;39.012;-7.064;2023-05-01T05:53:43;98438.03;;;17.42;51.13
60240;BME280;46102;39.012;-7.064;2023-05-01T05:55:47;98446.72;;;17.40;50.98
60240;BME280;46102;39.012;-7.064;2023-05-01T05:57:48;98441.25;;;17.44;50.65
60240;BME280;46102;39.012;-7.064;2023-05-01T05:59:49;98450.94;;;17.54;50.08
60240;BME280;46102;39.012;-7.064;2023-05-01T06:01:53;98459.00;;;17.59;49.93
60240;BME280;46102;39.012;-7.064;2023-05-01T06:03:54;98463.34;;;17.60;49.83
60240;BME280;46102;39.012;-7.064;2023-05-01T06:05:57;98454.72;;;17.65;49.65
60240;BME280;46102;39.012;-7.064;2023-05-01T06:07:58;98449.25;;;17.68;49.53
60240;BME280;46102;39.012;-7.064;2023-05-01T06:09:59;98459.25;;;17.73;49.36
60240;BME280;46102;39.012;-7.064;2023-05-01T06:12:04;98468.09;;;17.79;48.90
60240;BME280;46102;39.012;-7.064;2023-05-01T06:14:06;98468.25;;;17.86;48.58
60240;BME280;46102;39.012;-7.064;2023-05-01T06:16:07;98477.16;;;17.95;48.22
60240;BME280;46102;39.012;-7.064;2023-05-01T06:18:08;98474.56;;;18.06;47.87
60240;BME280;46102;39.012;-7.064;2023-05-01T06:20:09;98475.50;;;18.14;47.54
60240;BME280;46102;39.012;-7.064;2023-05-01T06:22:11;98476.91;;;18.27;47.21
60240;BME280;46102;39.012;-7.064;2023-05-01T06:24:21;98475.44;;;18.33;46.88
60240;BME280;46102;39.012;-7.064;2023-05-01T06:26:25;98478.34;;;18.40;46.90
60240;BME280;46102;39.012;-7.064;2023-05-01T06:28:25;98470.13;;;18.47;46.43
60240;BME280;46102;39.012;-7.064;2023-05-01T06:30:26;98479.00;;;18.57;46.29
60240;BME280;46102;39.012;-7.064;2023-05-01T06:32:27;98474.41;;;18.68;45.97
60240;BME280;46102;39.012;-7.064;2023-05-01T06:34:28;98476.59;;;18.78;45.64
60240;BME280;46102;39.012;-7.064;2023-05-01T06:36:29;98483.81;;;18.83;45.60
60240;BME280;46102;39.012;-7.064;2023-05-01T06:38:30;98487.47;;;18.90;45.30
60240;BME280;46102;39.012;-7.064;2023-05-01T06:40:33;98479.56;;;18.92;45.27
60240;BME280;46102;39.012;-7.064;2023-05-01T06:42:37;98489.31;;;19.06;45.19
60240;BME280;46102;39.012;-7.064;2023-05-01T06:44:38;98487.56;;;19.24;44.77
60240;BME280;46102;39.012;-7.064;2023-05-01T06:46:39;98488.50;;;19.35;44.28
60240;BME280;46102;39.012;-7.064;2023-05-01T06:48:40;98501.72;;;19.42;44.26
60240;BME280;46102;39.012;-7.064;2023-05-01T06:50:41;98497.09;;;19.53;43.98
60240;BME280;46102;39.012;-7.064;2023-05-01T06:52:42;98485.31;;;19.67;43.72
60240;BME280;46102;39.012;-7.064;2023-05-01T06:54:43;98483.97;;;19.84;43.21
60240;BME280;46102;39.012;-7.064;2023-05-01T06:56:44;98487.19;;;19.90;43.07
60240;BME280;46102;39.012;-7.064;2023-05-01T06:58:45;98491.69;;;20.02;42.67
60240;BME280;46102;39.012;-7.064;2023-05-01T07:00:45;98489.50;;;20.18;42.32
60240;BME280;46102;39.012;-7.064;2023-05-01T07:02:47;98494.28;;;20.21;42.16
60240;BME280;46102;39.012;-7.064;2023-05-01T07:04:47;98490.41;;;20.29;41.89
60240;BME280;46102;39.012;-7.064;2023-05-01T07:06:48;98486.97;;;20.47;41.19
60240;BME280;46102;39.012;-7.064;2023-05-01T07:08:49;98498.13;;;20.50;41.30
60240;BME280;46102;39.012;-7.064;2023-05-01T07:10:51;98493.91;;;20.64;41.31
60240;BME280;46102;39.012;-7.064;2023-05-01T07:12:53;98491.63;;;20.80;40.78
60240;BME280;46102;39.012;-7.064;2023-05-01T07:14:54;98496.91;;;20.92;40.70
60240;BME280;46102;39.012;-7.064;2023-05-01T07:16:56;98492.16;;;21.00;39.96
60240;BME280;46102;39.012;-7.064;2023-05-01T07:18:57;98503.78;;;21.09;39.81
60240;BME280;46102;39.012;-7.064;2023-05-01T07:20:58;98490.69;;;21.17;38.99
60240;BME280;46102;39.012;-7.064;2023-05-01T07:22:59;98493.94;;;21.26;39.10
60240;BME280;46102;39.012;-7.064;2023-05-01T07:25:00;98498.00;;;21.39;39.11
60240;BME280;46102;39.012;-7.064;2023-05-01T07:27:02;98503.25;;;21.48;38.53
60240;BME280;46102;39.012;-7.064;2023-05-01T07:29:03;98508.88;;;21.62;38.39
60240;BME280;46102;39.012;-7.064;2023-05-01T07:31:04;98506.16;;;21.80;37.65
60240;BME280;46102;39.012;-7.064;2023-05-01T07:33:05;98498.59;;;21.85;37.63
60240;BME280;46102;39.012;-7.064;2023-05-01T07:35:06;98499.03;;;21.94;37.09
60240;BME280;46102;39.012;-7.064;2023-05-01T07:37:07;98501.03;;;22.04;37.07
60240;BME280;46102;39.012;-7.064;2023-05-01T07:39:08;98505.91;;;22.21;36.79
60240;BME280;46102;39.012;-7.064;2023-05-01T07:41:08;98508.72;;;22.32;36.20
60240;BME280;46102;39.012;-7.064;2023-05-01T07:43:09;98499.53;;;22.46;36.26
60240;BME280;46102;39.012;-7.064;2023-05-01T07:45:11;98501.53;;;22.53;36.16
60240;BME280;46102;39.012;-7.064;2023-05-01T07:47:12;98505.53;;;22.55;35.93
60240;BME280;46102;39.012;-7.064;2023-05-01T07:49:12;98503.56;;;22.70;35.83
60240;BME280;46102;39.012;-7.064;2023-05-01T07:51:13;98499.53;;;22.89;35.54
60240;BME280;46102;39.012;-7.064;2023-05-01T07:53:14;98509.91;;;22.96;35.03
60240;BME280;46102;39.012;-7.064;2023-05-01T07:55:15;98511.91;;;23.10;35.10
60240;BME280;46102;39.012;-7.064;2023-05-01T07:57:18;98515.09;;;23.19;34.71
60240;BME280;46102;39.012;-7.064;2023-05-01T07:59:19;98511.03;;;23.41;34.67
60240;BME280;46102;39.012;-7.064;2023-05-01T08:01:20;98518.16;;;23.64;33.99
60240;BME280;46102;39.012;-7.064;2023-05-01T08:03:20;98511.75;;;23.78;33.86
60240;BME280;46102;39.012;-7.064;2023-05-01T08:05:21;98518.91;;;23.86;33.45
60240;BME280;46102;39.012;-7.064;2023-05-01T08:07:22;98518.06;;;23.96;33.42
60240;BME280;46102;39.012;-7.064;2023-05-01T08:09:23;98515.13;;;24.18;33.26
60240;BME280;46102;39.012;-7.064;2023-05-01T08:11:24;98519.13;;;24.24;33.04
60240;BME280;46102;39.012;-7.064;2023-05-01T08:13:25;98523.38;;;24.43;33.17
60240;BME280;46102;39.012;-7.064;2023-05-01T08:15:26;98516.03;;;24.67;32.65
60240;BME280;46102;39.012;-7.064;2023-05-01T08:17:28;98511.44;;;24.87;32.28
60240;BME280;46102;39.012;-7.064;2023-05-01T08:19:28;98520.16;;;25.00;31.96
60240;BME280;46102;39.012;-7.064;2023-05-01T08:21:29;98517.25;;;25.11;32.19
60240;BME280;46102;39.012;-7.064;2023-05-01T08:23:30;98515.19;;;25.19;31.97
60240;BME280;46102;39.012;-7.064;2023-05-01T08:25:31;98509.78;;;25.39;31.94
60240;BME280;46102;39.012;-7.064;2023-05-01T08:27:32;98518.47;;;25.51;31.03
60240;BME280;46102;39.012;-7.064;2023-05-01T08:29:33;98509.59;;;25.53;31.66
60240;BME280;46102;39.012;-7.064;2023-05-01T08:31:34;98515.94;;;25.61;31.20
60240;BME280;46102;39.012;-7.064;2023-05-01T08:33:37;98522.66;;;25.70;31.35
60240;BME280;46102;39.012;-7.064;2023-05-01T08:35:37;98524.00;;;25.93;31.01
60240;BME280;46102;39.012;-7.064;2023-05-01T08:37:38;98524.09;;;26.16;30.80
60240;BME280;46102;39.012;-7.064;2023-05-01T08:39:39;98533.22;;;26.24;30.31
60240;BME280;46102;39.012;-7.064;2023-05-01T08:41:44;98520.09;;;26.41;30.12
60240;BME280;46102;39.012;-7.064;2023-05-01T08:43:45;98534.59;;;26.40;30.12
60240;BME280;46102;39.012;-7.064;2023-05-01T08:45:46;98527.16;;;26.53;30.25
60240;BME280;46102;39.012;-7.064;2023-05-01T08:47:48;98540.16;;;26.70;29.62
60240;BME280;46102;39.012;-7.064;2023-05-01T08:49:51;98531.56;;;26.81;29.65
60240;BME280;46102;39.012;-7.064;2023-05-01T08:51:52;98535.78;;;26.93;29.37
60240;BME280;46102;39.012;-7.064;2023-05-01T08:53:57;98532.91;;;27.20;28.98
60240;BME280;46102;39.012;-7.064;2023-05-01T08:55:59;98534.41;;;27.48;28.27
60240;BME280;46102;39.012;-7.064;2023-05-01T08:58:02;98537.41;;;27.61;27.86
60240;BME280;46102;39.012;-7.064;2023-05-01T09:00:09;98539.97;;;27.72;27.78
60240;BME280;46102;39.012;-7.064;2023-05-01T09:02:14;98531.66;;;27.88;27.47
60240;BME280;46102;39.012;-7.064;2023-05-01T09:04:16;98530.75;;;28.11;27.24
60240;BME280;46102;39.012;-7.064;2023-05-01T09:06:17;98531.44;;;28.35;26.67
60240;BME280;46102;39.012;-7.064;2023-05-01T09:08:18;98533.56;;;28.48;26.67
60240;BME280;46102;39.012;-7.064;2023-05-01T09:10:20;98541.50;;;28.53;26.19
60240;BME280;46102;39.012;-7.064;2023-05-01T09:12:23;98529.38;;;28.56;26.58
60240;BME280;46102;39.012;-7.064;2023-05-01T09:14:25;98536.59;;;28.73;25.76
60240;BME280;46102;39.012;-7.064;2023-05-01T09:16:26;98540.81;;;28.81;25.73
60240;BME280;46102;39.012;-7.064;2023-05-01T09:18:28;98533.44;;;28.88;25.67
60240;BME280;46102;39.012;-7.064;2023-05-01T09:20:30;98539.00;;;28.91;25.32
60240;BME280;46102;39.012;-7.064;2023-05-01T09:22:32;98538.69;;;29.02;25.32
60240;BME280;46102;39.012;-7.064;2023-05-01T09:24:33;98544.44;;;28.98;25.87
60240;BME280;46102;39.012;-7.064;2023-05-01T09:26:34;98537.94;;;28.85;25.04
60240;BME280;46102;39.012;-7.064;2023-05-01T09:28:40;98544.34;;;28.85;25.65
60240;BME280;46102;39.012;-7.064;2023-05-01T09:30:44;98547.09;;;29.05;25.69
60240;BME280;46102;39.012;-7.064;2023-05-01T09:32:45;98557.69;;;29.18;24.92
60240;BME280;46102;39.012;-7.064;2023-05-01T09:35:11;98552.97;;;29.44;25.34
60240;BME280;46102;39.012;-7.064;2023-05-01T09:37:29;98554.66;;;29.41;25.05
60240;BME280;46102;39.012;-7.064;2023-05-01T09:39:30;98553.56;;;29.52;24.99
60240;BME280;46102;39.012;-7.064;2023-05-01T09:41:31;98557.53;;;29.71;24.96
60240;BME280;46102;39.012;-7.064;2023-05-01T09:43:33;98551.09;;;29.83;24.79
60240;BME280;46102;39.012;-7.064;2023-05-01T09:45:33;98553.31;;;30.04;24.68
60240;BME280;46102;39.012;-7.064;2023-05-01T09:47:35;98551.84;;;30.13;24.50
60240;BME280;46102;39.012;-7.064;2023-05-01T09:49:44;98550.19;;;30.28;24.69
60240;BME280;46102;39.012;-7.064;2023-05-01T09:51:48;98557.56;;;30.51;24.41
60240;BME280;46102;39.012;-7.064;2023-05-01T09:53:49;98557.56;;;30.64;23.72
60240;BME280;46102;39.012;-7.064;2023-05-01T09:56:00;98552.38;;;30.62;24.00
60240;BME280;46102;39.012;-7.064;2023-05-01T09:58:02;98554.41;;;30.62;23.99
60240;BME280;46102;39.012;-7.064;2023-05-01T10:00:03;98562.34;;;30.67;23.84
60240;BME280;46102;39.012;-7.064;2023-05-01T10:02:26;98553.38;;;30.81;23.44
60240;BME280;46102;39.012;-7.064;2023-05-01T10:04:31;98553.94;;;30.89;23.59
60240;BME280;46102;39.012;-7.064;2023-05-01T10:06:32;98563.81;;;30.97;23.64
60240;BME280;46102;39.012;-7.064;2023-05-01T10:08:49;98558.78;;;31.14;23.74
60240;BME280;46102;39.012;-7.064;2023-05-01T10:11:01;98565.19;;;31.27;23.10
60240;BME280;46102;39.012;-7.064;2023-05-01T10:13:15;98560.09;;;31.48;22.90
60240;BME280;46102;39.012;-7.064;2023-05-01T10:15:17;98551.06;;;31.62;22.81
60240;BME280;46102;39.012;-7.064;2023-05-01T10:17:18;98562.84;;;31.61;22.55
60240;BME280;46102;39.012;-7.064;2023-05-01T10:19:19;98559.91;;;31.64;22.43
60240;BME280;46102;39.012;-7.064;2023-05-01T10:21:20;98561.59;;;31.84;22.58
60240;BME280;46102;39.012;-7.064;2023-05-01T10:23:21;98553.97;;;31.93;22.53
60240;BME280;46102;39.012;-7.064;2023-05-01T10:25:24;98549.63;;;32.02;22.14
60240;BME280;46102;39.012;-7.064;2023-05-01T10:27:27;98558.06;;;32.14;22.09
60240;BME280;46102;39.012;-7.064;2023-05-01T10:29:28;98560.66;;;32.31;22.44
60240;BME280;46102;39.012;-7.064;2023-05-01T10:31:31;98559.94;;;32.40;21.88
60240;BME280;46102;39.012;-7.064;2023-05-01T10:33:32;98558.84;;;32.46;21.98
60240;BME280;46102;39.012;-7.064;2023-05-01T10:35:35;98556.56;;;32.54;21.56
60240;BME280;46102;39.012;-7.064;2023-05-01T10:38:01;98561.00;;;32.64;21.13
60240;BME280;46102;39.012;-7.064;2023-05-01T10:43:14;98564.06;;;32.48;21.08
60240;BME280;46102;39.012;-7.064;2023-05-01T10:45:27;98558.72;;;32.50;20.68
60240;BME280;46102;39.012;-7.064;2023-05-01T10:50:03;98554.94;;;32.84;19.62
60240;BME280;46102;39.012;-7.064;2023-05-01T10:52:04;98550.75;;;33.07;19.82
60240;BME280;46102;39.012;-7.064;2023-05-01T11:00:38;98544.22;;;32.88;20.84
60240;BME280;46102;39.012;-7.064;2023-05-01T11:02:38;98547.44;;;33.09;20.48
60240;BME280;46102;39.012;-7.064;2023-05-01T11:04:47;98549.03;;;33.19;20.12
60240;BME280;46102;39.012;-7.064;2023-05-01T11:09:01;98548.69;;;33.08;20.13